X  Fermer Données météorologiques d'aviation de Metar     ETAR Ramstein Air Base
Température
20°C Température
10°C Point de rosée
53% Humidité



Vent
6 MPH
10 KM/H
3 M/S
5 KTS



220°
SO
Conditions actuelles

Partiellement nuageux Partiellement nuageux
Pression 1017.27 (hPa) - 30.04 (inHg)
Visibilité 6 (mile) - 9.7 (km)
Aéroport
Code de l'aéroport ETAR

Emplacement: Ramstein Air Base
Distance: 25 (mi)

Metar:
ETAR 270955Z AUTO 22005KT 9999 FEW085 SCT200 20/10 A3004 RMK AO2 SLP174 T01990103

Temps: 27-05-2024 11:55 CEST